sensor_id;sensor_type;location;lat;lon;timestamp;pressure;altitude;pressure_sealevel;temperature;humidity
61039;BME280;46919;45.816;3.104;2023-04-20T00:00:56;97340.28;;;11.84;80.47
61039;BME280;46919;45.816;3.104;2023-04-20T00:03:22;97339.31;;;11.73;81.73
61039;BME280;46919;45.816;3.104;2023-04-20T00:05:47;97328.31;;;11.63;82.65
61039;BME280;46919;45.816;3.104;2023-04-20T00:08:15;97328.25;;;11.58;82.85
61039;BME280;46919;45.816;3.104;2023-04-20T00:10:44;97322.06;;;11.46;83.78
61039;BME280;46919;45.816;3.104;2023-04-20T00:13:10;97319.28;;;11.40;84.06
61039;BME280;46919;45.816;3.104;2023-04-20T00:15:36;97324.34;;;11.37;83.77
61039;BME280;46919;45.816;3.104;2023-04-20T00:18:01;97319.09;;;11.30;85.18
61039;BME280;46919;45.816;3.104;2023-04-20T00:20:27;97309.16;;;11.19;85.21
61039;BME280;46919;45.816;3.104;2023-04-20T00:22:53;97316.25;;;11.08;86.06
61039;BME280;46919;45.816;3.104;2023-04-20T00:25:19;97319.59;;;10.98;85.82
61039;BME280;46919;45.816;3.104;2023-04-20T00:27:45;97312.34;;;10.87;86.42
61039;BME280;46919;45.816;3.104;2023-04-20T00:30:11;97314.50;;;10.73;87.05
61039;BME280;46919;45.816;3.104;2023-04-20T00:32:36;97306.44;;;10.61;87.29
61039;BME280;46919;45.816;3.104;2023-04-20T00:35:02;97299.63;;;10.59;86.71
61039;BME280;46919;45.816;3.104;2023-04-20T00:37:27;97300.34;;;10.54;87.57
61039;BME280;46919;45.816;3.104;2023-04-20T00:39:54;97293.66;;;10.57;88.05
61039;BME280;46919;45.816;3.104;2023-04-20T00:42:19;97289.53;;;10.54;88.68
61039;BME280;46919;45.816;3.104;2023-04-20T00:44:44;97300.81;;;10.51;89.72
61039;BME280;46919;45.816;3.104;2023-04-20T00:47:10;97285.22;;;10.53;90.25
61039;BME280;46919;45.816;3.104;2023-04-20T00:49:35;97280.72;;;10.59;89.85
61039;BME280;46919;45.816;3.104;2023-04-20T00:52:01;97285.09;;;10.48;90.40
61039;BME280;46919;45.816;3.104;2023-04-20T00:54:27;97275.47;;;10.28;91.79
61039;BME280;46919;45.816;3.104;2023-04-20T00:56:55;97274.00;;;10.09;93.17
61039;BME280;46919;45.816;3.104;2023-04-20T00:59:22;97274.22;;;9.95;93.23
61039;BME280;46919;45.816;3.104;2023-04-20T01:01:48;97279.53;;;9.90;93.44
61039;BME280;46919;45.816;3.104;2023-04-20T01:04:14;97275.06;;;9.84;93.00
61039;BME280;46919;45.816;3.104;2023-04-20T01:06:40;97277.53;;;9.86;92.58
61039;BME280;46919;45.816;3.104;2023-04-20T01:09:05;97273.88;;;9.80;92.92
61039;BME280;46919;45.816;3.104;2023-04-20T01:11:31;97270.38;;;9.68;93.66
61039;BME280;46919;45.816;3.104;2023-04-20T01:13:56;97271.53;;;9.60;94.49
61039;BME280;46919;45.816;3.104;2023-04-20T01:16:21;97265.31;;;9.48;94.68
61039;BME280;46919;45.816;3.104;2023-04-20T01:18:49;97263.88;;;9.45;95.35
61039;BME280;46919;45.816;3.104;2023-04-20T01:21:17;97266.13;;;9.48;94.18
61039;BME280;46919;45.816;3.104;2023-04-20T01:23:44;97258.03;;;9.48;93.49
61039;BME280;46919;45.816;3.104;2023-04-20T01:26:14;97258.97;;;9.42;94.04
61039;BME280;46919;45.816;3.104;2023-04-20T01:28:39;97262.63;;;9.36;93.88
61039;BME280;46919;45.816;3.104;2023-04-20T01:31:06;97262.69;;;9.29;93.58
61039;BME280;46919;45.816;3.104;2023-04-20T01:33:32;97253.78;;;9.29;93.88
61039;BME280;46919;45.816;3.104;2023-04-20T01:35:58;97253.22;;;9.27;94.18
61039;BME280;46919;45.816;3.104;2023-04-20T01:38:24;97251.69;;;9.31;93.87
61039;BME280;46919;45.816;3.104;2023-04-20T01:40:50;97248.78;;;9.44;92.82
61039;BME280;46919;45.816;3.104;2023-04-20T01:43:16;97248.31;;;9.47;93.04
61039;BME280;46919;45.816;3.104;2023-04-20T01:45:42;97243.97;;;9.46;92.30
61039;BME280;46919;45.816;3.104;2023-04-20T01:48:07;97243.63;;;9.54;92.17
61039;BME280;46919;45.816;3.104;2023-04-20T01:50:33;97248.88;;;9.61;91.99
61039;BME280;46919;45.816;3.104;2023-04-20T01:52:58;97235.06;;;9.69;91.87
61039;BME280;46919;45.816;3.104;2023-04-20T01:55:23;97241.03;;;9.71;92.07
61039;BME280;46919;45.816;3.104;2023-04-20T01:57:49;97243.97;;;9.70;92.60
61039;BME280;46919;45.816;3.104;2023-04-20T02:00:14;97243.16;;;9.69;92.66
61039;BME280;46919;45.816;3.104;2023-04-20T02:02:40;97238.81;;;9.68;93.17
61039;BME280;46919;45.816;3.104;2023-04-20T02:05:06;97244.22;;;9.68;93.05
61039;BME280;46919;45.816;3.104;2023-04-20T02:07:32;97244.09;;;9.75;92.88
61039;BME280;46919;45.816;3.104;2023-04-20T02:09:57;97240.69;;;9.79;92.75
61039;BME280;46919;45.816;3.104;2023-04-20T02:12:23;97240.56;;;9.86;91.68
61039;BME280;46919;45.816;3.104;2023-04-20T02:14:48;97236.34;;;9.90;91.54
61039;BME280;46919;45.816;3.104;2023-04-20T02:17:14;97226.72;;;9.94;91.06
61039;BME280;46919;45.816;3.104;2023-04-20T02:19:39;97226.81;;;10.00;91.08
61039;BME280;46919;45.816;3.104;2023-04-20T02:22:04;97225.41;;;9.97;91.27
61039;BME280;46919;45.816;3.104;2023-04-20T02:24:30;97232.59;;;9.91;91.53
61039;BME280;46919;45.816;3.104;2023-04-20T02:26:56;97230.94;;;9.90;91.50
61039;BME280;46919;45.816;3.104;2023-04-20T02:29:23;97222.84;;;9.90;91.67
61039;BME280;46919;45.816;3.104;2023-04-20T02:31:48;97221.31;;;9.83;91.40
61039;BME280;46919;45.816;3.104;2023-04-20T02:34:13;97218.16;;;9.86;91.29
61039;BME280;46919;45.816;3.104;2023-04-20T02:36:39;97225.53;;;9.90;91.26
61039;BME280;46919;45.816;3.104;2023-04-20T02:39:05;97216.97;;;9.82;91.64
61039;BME280;46919;45.816;3.104;2023-04-20T02:41:30;97218.50;;;9.77;91.82
61039;BME280;46919;45.816;3.104;2023-04-20T02:43:56;97221.78;;;9.79;92.01
61039;BME280;46919;45.816;3.104;2023-04-20T02:46:21;97225.53;;;9.78;91.34
61039;BME280;46919;45.816;3.104;2023-04-20T02:48:46;97220.88;;;9.74;91.47
61039;BME280;46919;45.816;3.104;2023-04-20T02:51:12;97221.34;;;9.71;91.33
61039;BME280;46919;45.816;3.104;2023-04-20T02:53:37;97222.28;;;9.65;90.96
61039;BME280;46919;45.816;3.104;2023-04-20T02:56:03;97225.34;;;9.56;91.71
61039;BME280;46919;45.816;3.104;2023-04-20T02:58:28;97219.22;;;9.49;92.24
61039;BME280;46919;45.816;3.104;2023-04-20T03:01:00;97216.75;;;9.48;92.02
61039;BME280;46919;45.816;3.104;2023-04-20T03:03:27;97219.91;;;9.45;92.17
61039;BME280;46919;45.816;3.104;2023-04-20T03:05:53;97216.41;;;9.44;91.97
61039;BME280;46919;45.816;3.104;2023-04-20T03:08:18;97216.53;;;9.49;91.92
61039;BME280;46919;45.816;3.104;2023-04-20T03:10:44;97209.16;;;9.56;91.79
61039;BME280;46919;45.816;3.104;2023-04-20T03:13:09;97209.63;;;9.53;92.14
61039;BME280;46919;45.816;3.104;2023-04-20T03:15:35;97207.63;;;9.49;92.77
61039;BME280;46919;45.816;3.104;2023-04-20T03:18:00;97213.47;;;9.46;93.06
61039;BME280;46919;45.816;3.104;2023-04-20T03:20:26;97218.16;;;9.38;93.81
61039;BME280;46919;45.816;3.104;2023-04-20T03:22:51;97211.22;;;9.31;94.20
61039;BME280;46919;45.816;3.104;2023-04-20T03:25:17;97216.03;;;9.29;94.60
61039;BME280;46919;45.816;3.104;2023-04-20T03:27:45;97213.81;;;9.25;94.80
61039;BME280;46919;45.816;3.104;2023-04-20T03:30:11;97211.81;;;9.21;95.18
61039;BME280;46919;45.816;3.104;2023-04-20T03:32:37;97206.88;;;9.18;95.17
61039;BME280;46919;45.816;3.104;2023-04-20T03:35:05;97206.66;;;9.19;95.26
61039;BME280;46919;45.816;3.104;2023-04-20T03:37:31;97207.50;;;9.20;95.07
61039;BME280;46919;45.816;3.104;2023-04-20T03:39:56;97203.03;;;9.25;95.17
61039;BME280;46919;45.816;3.104;2023-04-20T03:42:22;97204.22;;;9.30;95.12
61039;BME280;46919;45.816;3.104;2023-04-20T03:44:47;97208.53;;;9.31;95.03
61039;BME280;46919;45.816;3.104;2023-04-20T03:47:13;97204.78;;;9.20;95.83
61039;BME280;46919;45.816;3.104;2023-04-20T03:49:38;97213.81;;;9.14;95.88
61039;BME280;46919;45.816;3.104;2023-04-20T03:52:04;97213.56;;;9.15;96.69
61039;BME280;46919;45.816;3.104;2023-04-20T03:54:30;97207.47;;;9.08;97.24
61039;BME280;46919;45.816;3.104;2023-04-20T03:56:55;97210.63;;;9.05;97.23
61039;BME280;46919;45.816;3.104;2023-04-20T03:59:21;97212.97;;;9.01;97.42
61039;BME280;46919;45.816;3.104;2023-04-20T04:01:46;97208.38;;;9.02;97.57
61039;BME280;46919;45.816;3.104;2023-04-20T04:04:11;97202.41;;;9.00;97.25
61039;BME280;46919;45.816;3.104;2023-04-20T04:06:37;97207.91;;;9.05;97.04
61039;BME280;46919;45.816;3.104;2023-04-20T04:09:02;97200.41;;;9.07;95.91
61039;BME280;46919;45.816;3.104;2023-04-20T04:11:28;97199.94;;;9.10;95.91
61039;BME280;46919;45.816;3.104;2023-04-20T04:13:57;97205.72;;;9.14;95.84
61039;BME280;46919;45.816;3.104;2023-04-20T04:16:22;97204.53;;;9.10;95.78
61039;BME280;46919;45.816;3.104;2023-04-20T04:18:48;97192.31;;;9.07;95.36
61039;BME280;46919;45.816;3.104;2023-04-20T04:21:13;97199.59;;;9.06;94.42
61039;BME280;46919;45.816;3.104;2023-04-20T04:23:38;97210.50;;;9.00;94.57
61039;BME280;46919;45.816;3.104;2023-04-20T04:26:06;97208.84;;;8.99;94.42
61039;BME280;46919;45.816;3.104;2023-04-20T04:28:32;97211.75;;;8.97;94.21
61039;BME280;46919;45.816;3.104;2023-04-20T04:30:57;97204.38;;;8.93;94.20
61039;BME280;46919;45.816;3.104;2023-04-20T04:33:25;97210.22;;;8.89;94.28
61039;BME280;46919;45.816;3.104;2023-04-20T04:35:51;97206.94;;;8.87;94.40
61039;BME280;46919;45.816;3.104;2023-04-20T04:38:17;97204.16;;;8.94;94.64
61039;BME280;46919;45.816;3.104;2023-04-20T04:40:43;97203.78;;;8.91;94.55
61039;BME280;46919;45.816;3.104;2023-04-20T04:43:10;97200.75;;;8.87;94.74
61039;BME280;46919;45.816;3.104;2023-04-20T04:45:38;97203.66;;;8.85;94.97
61039;BME280;46919;45.816;3.104;2023-04-20T04:48:05;97206.59;;;8.84;94.98
61039;BME280;46919;45.816;3.104;2023-04-20T04:50:30;97207.41;;;8.84;94.97
61039;BME280;46919;45.816;3.104;2023-04-20T04:52:56;97208.47;;;8.83;94.62
61039;BME280;46919;45.816;3.104;2023-04-20T04:55:21;97212.44;;;8.81;95.41
61039;BME280;46919;45.816;3.104;2023-04-20T04:57:46;97215.50;;;8.84;94.85
61039;BME280;46919;45.816;3.104;2023-04-20T05:00:12;97214.56;;;8.79;95.39
61039;BME280;46919;45.816;3.104;2023-04-20T05:02:38;97213.47;;;8.80;95.03
61039;BME280;46919;45.816;3.104;2023-04-20T05:05:04;97218.28;;;8.78;95.48
61039;BME280;46919;45.816;3.104;2023-04-20T05:07:29;97225.78;;;8.76;95.25
61039;BME280;46919;45.816;3.104;2023-04-20T05:09:55;97223.31;;;8.74;94.25
61039;BME280;46919;45.816;3.104;2023-04-20T05:12:20;97228.56;;;8.69;94.84
61039;BME280;46919;45.816;3.104;2023-04-20T05:14:46;97225.50;;;8.65;94.92
61039;BME280;46919;45.816;3.104;2023-04-20T05:17:11;97226.81;;;8.63;95.39
61039;BME280;46919;45.816;3.104;2023-04-20T05:19:36;97229.72;;;8.61;95.91
61039;BME280;46919;45.816;3.104;2023-04-20T05:22:02;97233.22;;;8.62;95.96
61039;BME280;46919;45.816;3.104;2023-04-20T05:24:27;97237.09;;;8.66;95.52
61039;BME280;46919;45.816;3.104;2023-04-20T05:26:53;97222.47;;;8.74;94.65
61039;BME280;46919;45.816;3.104;2023-04-20T05:29:18;97237.59;;;8.75;93.89
61039;BME280;46919;45.816;3.104;2023-04-20T05:31:44;97237.16;;;8.78;93.35
61039;BME280;46919;45.816;3.104;2023-04-20T05:34:09;97234.09;;;8.74;93.19
61039;BME280;46919;45.816;3.104;2023-04-20T05:36:35;97224.94;;;8.75;93.12
61039;BME280;46919;45.816;3.104;2023-04-20T05:39:01;97229.53;;;8.75;92.17
61039;BME280;46919;45.816;3.104;2023-04-20T05:41:27;97231.69;;;8.66;92.09
61039;BME280;46919;45.816;3.104;2023-04-20T05:43:55;97232.25;;;8.56;92.45
61039;BME280;46919;45.816;3.104;2023-04-20T05:46:21;97240.56;;;8.55;91.96
61039;BME280;46919;45.816;3.104;2023-04-20T05:48:47;97236.25;;;8.54;92.04
61039;BME280;46919;45.816;3.104;2023-04-20T05:51:13;97242.22;;;8.56;91.56
61039;BME280;46919;45.816;3.104;2023-04-20T05:53:38;97245.66;;;8.63;91.34
61039;BME280;46919;45.816;3.104;2023-04-20T05:56:04;97250.34;;;8.67;91.52
61039;BME280;46919;45.816;3.104;2023-04-20T05:58:31;97249.19;;;8.75;91.48
61039;BME280;46919;45.816;3.104;2023-04-20T06:00:57;97251.19;;;8.80;91.02
61039;BME280;46919;45.816;3.104;2023-04-20T06:03:23;97253.91;;;8.80;91.08
61039;BME280;46919;45.816;3.104;2023-04-20T06:05:48;97261.50;;;8.71;91.59
61039;BME280;46919;45.816;3.104;2023-04-20T06:08:13;97257.78;;;8.84;90.84
61039;BME280;46919;45.816;3.104;2023-04-20T06:10:39;97267.44;;;8.92;90.81
61039;BME280;46919;45.816;3.104;2023-04-20T06:13:04;97258.66;;;8.96;89.98
61039;BME280;46919;45.816;3.104;2023-04-20T06:15:30;97268.59;;;8.96;89.66
61039;BME280;46919;45.816;3.104;2023-04-20T06:17:55;97262.50;;;8.88;89.55
61039;BME280;46919;45.816;3.104;2023-04-20T06:20:21;97274.19;;;8.82;89.14
61039;BME280;46919;45.816;3.104;2023-04-20T06:22:47;97267.97;;;8.82;89.21
61039;BME280;46919;45.816;3.104;2023-04-20T06:25:12;97271.16;;;8.91;88.91
61039;BME280;46919;45.816;3.104;2023-04-20T06:27:40;97268.13;;;8.99;88.89
61039;BME280;46919;45.816;3.104;2023-04-20T06:30:06;97274.72;;;9.03;88.50
61039;BME280;46919;45.816;3.104;2023-04-20T06:32:32;97276.50;;;9.09;88.58
61039;BME280;46919;45.816;3.104;2023-04-20T06:34:57;97273.13;;;9.14;88.19
61039;BME280;46919;45.816;3.104;2023-04-20T06:37:22;97270.91;;;9.22;87.85
61039;BME280;46919;45.816;3.104;2023-04-20T06:39:54;97270.53;;;9.19;87.83
61039;BME280;46919;45.816;3.104;2023-04-20T06:42:20;97272.66;;;9.29;87.47
61039;BME280;46919;45.816;3.104;2023-04-20T06:44:46;97271.50;;;9.36;87.40
61039;BME280;46919;45.816;3.104;2023-04-20T06:47:11;97276.22;;;9.41;87.03
61039;BME280;46919;45.816;3.104;2023-04-20T06:49:37;97273.88;;;9.33;86.94
61039;BME280;46919;45.816;3.104;2023-04-20T06:52:04;97283.00;;;9.32;87.13
61039;BME280;46919;45.816;3.104;2023-04-20T06:54:30;97275.81;;;9.25;86.78
61039;BME280;46919;45.816;3.104;2023-04-20T06:56:55;97272.66;;;9.29;86.51
61039;BME280;46919;45.816;3.104;2023-04-20T06:59:21;97273.13;;;9.25;86.03
61039;BME280;46919;45.816;3.104;2023-04-20T07:01:46;97274.66;;;9.33;86.65
61039;BME280;46919;45.816;3.104;2023-04-20T07:04:12;97271.50;;;9.36;86.22
61039;BME280;46919;45.816;3.104;2023-04-20T07:06:37;97269.97;;;9.29;85.81
61039;BME280;46919;45.816;3.104;2023-04-20T07:09:03;97268.09;;;9.29;86.37
61039;BME280;46919;45.816;3.104;2023-04-20T07:11:29;97270.44;;;9.25;85.89
61039;BME280;46919;45.816;3.104;2023-04-20T07:13:54;97275.94;;;9.31;85.66
61039;BME280;46919;45.816;3.104;2023-04-20T07:16:20;97272.53;;;9.23;85.40
61039;BME280;46919;45.816;3.104;2023-04-20T07:18:45;97268.66;;;9.19;85.63
61039;BME280;46919;45.816;3.104;2023-04-20T07:21:10;97279.09;;;9.28;85.15
61039;BME280;46919;45.816;3.104;2023-04-20T07:23:36;97270.25;;;9.39;84.88
61039;BME280;46919;45.816;3.104;2023-04-20T07:26:01;97272.47;;;9.54;84.98
61039;BME280;46919;45.816;3.104;2023-04-20T07:28:27;97277.16;;;9.70;84.32
61039;BME280;46919;45.816;3.104;2023-04-20T07:30:52;97268.72;;;9.90;83.81
61039;BME280;46919;45.816;3.104;2023-04-20T07:33:17;97275.75;;;10.03;83.47
61039;BME280;46919;45.816;3.104;2023-04-20T07:35:43;97269.66;;;10.08;83.04
61039;BME280;46919;45.816;3.104;2023-04-20T07:38:09;97272.44;;;10.13;82.85
61039;BME280;46919;45.816;3.104;2023-04-20T07:40:34;97274.44;;;10.18;82.46
61039;BME280;46919;45.816;3.104;2023-04-20T07:43:00;97268.66;;;10.26;82.48
61039;BME280;46919;45.816;3.104;2023-04-20T07:45:25;97265.72;;;10.27;81.48
61039;BME280;46919;45.816;3.104;2023-04-20T07:47:51;97267.50;;;10.33;81.61
61039;BME280;46919;45.816;3.104;2023-04-20T07:50:18;97259.50;;;10.39;80.99
61039;BME280;46919;45.816;3.104;2023-04-20T07:52:43;97264.66;;;10.52;80.22
61039;BME280;46919;45.816;3.104;2023-04-20T07:55:09;97257.34;;;10.64;79.58
61039;BME280;46919;45.816;3.104;2023-04-20T07:57:38;97261.78;;;10.71;78.39
61039;BME280;46919;45.816;3.104;2023-04-20T08:00:05;97252.09;;;10.75;78.53
61039;BME280;46919;45.816;3.104;2023-04-20T08:02:31;97259.97;;;10.76;78.93
61039;BME280;46919;45.816;3.104;2023-04-20T08:04:57;97254.41;;;10.83;78.66
61039;BME280;46919;45.816;3.104;2023-04-20T08:07:22;97259.16;;;10.76;78.57
61039;BME280;46919;45.816;3.104;2023-04-20T08:09:48;97267.38;;;10.81;77.81
61039;BME280;46919;45.816;3.104;2023-04-20T08:12:13;97270.50;;;10.90;77.54
61039;BME280;46919;45.816;3.104;2023-04-20T08:14:39;97271.00;;;10.86;76.76
61039;BME280;46919;45.816;3.104;2023-04-20T08:17:06;97263.78;;;10.92;76.69
61039;BME280;46919;45.816;3.104;2023-04-20T08:19:31;97259.72;;;11.06;75.71
61039;BME280;46919;45.816;3.104;2023-04-20T08:21:57;97263.09;;;11.31;74.74
61039;BME280;46919;45.816;3.104;2023-04-20T08:24:22;97261.72;;;11.62;73.57
61039;BME280;46919;45.816;3.104;2023-04-20T08:26:48;97264.91;;;11.76;72.44
61039;BME280;46919;45.816;3.104;2023-04-20T08:29:13;97268.09;;;11.90;71.41
61039;BME280;46919;45.816;3.104;2023-04-20T08:31:39;97266.63;;;11.99;70.91
61039;BME280;46919;45.816;3.104;2023-04-20T08:34:04;97266.16;;;12.02;70.85
61039;BME280;46919;45.816;3.104;2023-04-20T08:36:30;97271.38;;;12.09;70.68
61039;BME280;46919;45.816;3.104;2023-04-20T08:39:07;97270.28;;;12.10;68.16
61039;BME280;46919;45.816;3.104;2023-04-20T08:41:33;97268.56;;;12.04;69.84
61039;BME280;46919;45.816;3.104;2023-04-20T08:43:59;97269.63;;;12.20;69.61
61039;BME280;46919;45.816;3.104;2023-04-20T08:46:24;97263.94;;;12.43;68.07
61039;BME280;46919;45.816;3.104;2023-04-20T08:48:52;97268.00;;;12.63;67.58
61039;BME280;46919;45.816;3.104;2023-04-20T08:51:20;97266.03;;;12.80;67.30
61039;BME280;46919;45.816;3.104;2023-04-20T08:53:45;97258.91;;;13.01;66.41
61039;BME280;46919;45.816;3.104;2023-04-20T08:56:11;97261.28;;;12.93;66.18
61039;BME280;46919;45.816;3.104;2023-04-20T08:58:36;97252.03;;;12.94;65.39
61039;BME280;46919;45.816;3.104;2023-04-20T09:01:10;97249.53;;;12.87;64.99
61039;BME280;46919;45.816;3.104;2023-04-20T09:03:38;97253.94;;;12.66;64.94
61039;BME280;46919;45.816;3.104;2023-04-20T09:06:12;97258.91;;;12.74;64.79
61039;BME280;46919;45.816;3.104;2023-04-20T09:08:39;97260.16;;;12.66;63.19
61039;BME280;46919;45.816;3.104;2023-04-20T09:11:19;97254.50;;;12.46;63.91
61039;BME280;46919;45.816;3.104;2023-04-20T09:13:59;97250.34;;;12.38;63.57
61039;BME280;46919;45.816;3.104;2023-04-20T09:16:24;97246.69;;;12.49;64.52
61039;BME280;46919;45.816;3.104;2023-04-20T09:18:51;97255.03;;;12.70;63.50
61039;BME280;46919;45.816;3.104;2023-04-20T09:21:18;97247.91;;;12.86;63.69
61039;BME280;46919;45.816;3.104;2023-04-20T09:23:55;97245.59;;;13.00;62.52
61039;BME280;46919;45.816;3.104;2023-04-20T09:26:20;97249.13;;;13.00;62.44
61039;BME280;46919;45.816;3.104;2023-04-20T09:28:46;97251.47;;;13.19;61.34
61039;BME280;46919;45.816;3.104;2023-04-20T09:31:19;97249.75;;;13.35;60.94
61039;BME280;46919;45.816;3.104;2023-04-20T09:34:02;97245.41;;;13.34;59.66
61039;BME280;46919;45.816;3.104;2023-04-20T09:36:36;97250.69;;;13.51;59.14
61039;BME280;46919;45.816;3.104;2023-04-20T09:39:08;97242.41;;;13.68;58.69
61039;BME280;46919;45.816;3.104;2023-04-20T09:41:34;97244.72;;;13.86;58.00
61039;BME280;46919;45.816;3.104;2023-04-20T09:44:00;97241.94;;;13.81;57.44
61039;BME280;46919;45.816;3.104;2023-04-20T09:46:28;97244.25;;;14.00;57.12
61039;BME280;46919;45.816;3.104;2023-04-20T09:48:56;97246.69;;;14.01;57.22
61039;BME280;46919;45.816;3.104;2023-04-20T09:51:24;97239.94;;;14.04;55.95
61039;BME280;46919;45.816;3.104;2023-04-20T09:53:53;97246.19;;;14.04;55.31
61039;BME280;46919;45.816;3.104;2023-04-20T09:56:19;97242.28;;;13.90;55.84
61039;BME280;46919;45.816;3.104;2023-04-20T09:58:46;97248.03;;;13.99;55.13
61039;BME280;46919;45.816;3.104;2023-04-20T10:01:11;97246.72;;;14.06;54.91
61039;BME280;46919;45.816;3.104;2023-04-20T10:03:40;97242.16;;;14.12;53.42
61039;BME280;46919;45.816;3.104;2023-04-20T10:06:23;97243.97;;;14.01;52.73
61039;BME280;46919;45.816;3.104;2023-04-20T10:08:51;97230.94;;;14.03;52.86
61039;BME280;46919;45.816;3.104;2023-04-20T10:11:43;97231.88;;;14.24;49.72
61039;BME280;46919;45.816;3.104;2023-04-20T10:14:22;97221.50;;;14.16;47.79
61039;BME280;46919;45.816;3.104;2023-04-20T10:17:02;97236.13;;;14.05;50.20
61039;BME280;46919;45.816;3.104;2023-04-20T10:19:44;97231.91;;;14.29;48.38
61039;BME280;46919;45.816;3.104;2023-04-20T10:22:11;97231.13;;;14.34;50.15
61039;BME280;46919;45.816;3.104;2023-04-20T10:24:38;97246.28;;;14.25;50.19
61039;BME280;46919;45.816;3.104;2023-04-20T10:27:23;97225.41;;;14.36;48.82
61039;BME280;46919;45.816;3.104;2023-04-20T10:29:48;97228.72;;;14.48;48.96
61039;BME280;46919;45.816;3.104;2023-04-20T10:32:24;97234.22;;;14.63;48.59
61039;BME280;46919;45.816;3.104;2023-04-20T10:35:04;97220.34;;;14.60;48.31
61039;BME280;46919;45.816;3.104;2023-04-20T10:37:31;97218.44;;;14.60;47.49
61039;BME280;46919;45.816;3.104;2023-04-20T10:39:56;97216.81;;;14.59;47.39
61039;BME280;46919;45.816;3.104;2023-04-20T10:42:22;97223.94;;;14.71;47.29
61039;BME280;46919;45.816;3.104;2023-04-20T10:44:52;97217.13;;;14.73;47.06
61039;BME280;46919;45.816;3.104;2023-04-20T10:47:29;97215.09;;;14.43;47.71
61039;BME280;46919;45.816;3.104;2023-04-20T10:50:14;97211.06;;;14.50;47.38
61039;BME280;46919;45.816;3.104;2023-04-20T10:52:41;97214.97;;;14.80;48.79
61039;BME280;46919;45.816;3.104;2023-04-20T10:55:21;97211.50;;;15.21;48.76
61039;BME280;46919;45.816;3.104;2023-04-20T10:57:48;97209.88;;;15.35;47.57
61039;BME280;46919;45.816;3.104;2023-04-20T11:00:17;97205.75;;;15.43;47.53
61039;BME280;46919;45.816;3.104;2023-04-20T11:02:50;97189.72;;;15.31;46.93
61039;BME280;46919;45.816;3.104;2023-04-20T11:05:19;97192.97;;;15.49;46.14
61039;BME280;46919;45.816;3.104;2023-04-20T11:07:56;97194.06;;;15.43;44.32
61039;BME280;46919;45.816;3.104;2023-04-20T11:10:44;97202.50;;;15.41;46.15
61039;BME280;46919;45.816;3.104;2023-04-20T11:13:22;97192.97;;;15.28;43.77
61039;BME280;46919;45.816;3.104;2023-04-20T11:15:49;97186.97;;;15.36;45.82
61039;BME280;46919;45.816;3.104;2023-04-20T11:18:15;97187.50;;;15.64;45.33
61039;BME280;46919;45.816;3.104;2023-04-20T11:20:51;97181.22;;;15.64;44.39
61039;BME280;46919;45.816;3.104;2023-04-20T11:23:21;97178.22;;;15.86;45.25
61039;BME280;46919;45.816;3.104;2023-04-20T11:25:54;97172.78;;;15.91;44.64
61039;BME280;46919;45.816;3.104;2023-04-20T11:28:20;97171.13;;;15.90;45.59
61039;BME280;46919;45.816;3.104;2023-04-20T11:30:46;97173.75;;;16.21;44.40
61039;BME280;46919;45.816;3.104;2023-04-20T11:33:14;97164.47;;;16.27;44.67
61039;BME280;46919;45.816;3.104;2023-04-20T11:35:41;97166.88;;;16.39;43.83
61039;BME280;46919;45.816;3.104;2023-04-20T11:38:07;97174.91;;;16.64;43.26
61039;BME280;46919;45.816;3.104;2023-04-20T11:40:33;97179.56;;;16.64;43.15
61039;BME280;46919;45.816;3.104;2023-04-20T11:42:59;97167.69;;;16.84;42.09
61039;BME280;46919;45.816;3.104;2023-04-20T11:45:25;97166.38;;;16.76;42.56
61039;BME280;46919;45.816;3.104;2023-04-20T11:47:53;97170.16;;;16.91;42.94
61039;BME280;46919;45.816;3.104;2023-04-20T11:50:19;97170.25;;;17.15;42.26
61039;BME280;46919;45.816;3.104;2023-04-20T11:52:45;97164.66;;;16.96;42.18
61039;BME280;46919;45.816;3.104;2023-04-20T11:55:11;97162.78;;;16.81;43.13
61039;BME280;46919;45.816;3.104;2023-04-20T11:57:36;97170.16;;;16.86;44.44
61039;BME280;46919;45.816;3.104;2023-04-20T12:00:02;97164.97;;;16.89;44.85
61039;BME280;46919;45.816;3.104;2023-04-20T12:02:28;97171.56;;;17.23;44.34
61039;BME280;46919;45.816;3.104;2023-04-20T12:04:53;97163.94;;;17.14;43.80
61039;BME280;46919;45.816;3.104;2023-04-20T12:07:20;97157.50;;;17.00;44.26
61039;BME280;46919;45.816;3.104;2023-04-20T12:09:46;97155.09;;;16.93;43.74
61039;BME280;46919;45.816;3.104;2023-04-20T12:12:11;97156.97;;;16.98;43.66
61039;BME280;46919;45.816;3.104;2023-04-20T12:14:37;97153.44;;;16.97;42.82
61039;BME280;46919;45.816;3.104;2023-04-20T12:17:03;97152.09;;;17.29;42.93
61039;BME280;46919;45.816;3.104;2023-04-20T12:19:29;97148.44;;;17.10;41.46
61039;BME280;46919;45.816;3.104;2023-04-20T12:21:55;97140.69;;;17.22;41.69
61039;BME280;46919;45.816;3.104;2023-04-20T12:24:21;97149.69;;;17.52;41.23
61039;BME280;46919;45.816;3.104;2023-04-20T12:26:46;97148.22;;;17.65;39.76
61039;BME280;46919;45.816;3.104;2023-04-20T12:29:12;97142.94;;;17.44;38.11
61039;BME280;46919;45.816;3.104;2023-04-20T12:31:37;97144.34;;;17.42;38.95
61039;BME280;46919;45.816;3.104;2023-04-20T12:34:03;97140.28;;;17.63;39.18
61039;BME280;46919;45.816;3.104;2023-04-20T12:36:28;97142.97;;;17.68;38.21
61039;BME280;46919;45.816;3.104;2023-04-20T12:38:54;97144.03;;;17.72;38.02
61039;BME280;46919;45.816;3.104;2023-04-20T12:41:23;97143.44;;;17.75;37.42
61039;BME280;46919;45.816;3.104;2023-04-20T12:43:51;97144.66;;;17.93;37.39
61039;BME280;46919;45.816;3.104;2023-04-20T12:46:17;97153.13;;;17.92;37.47
61039;BME280;46919;45.816;3.104;2023-04-20T12:48:42;97149.25;;;17.98;36.72
61039;BME280;46919;45.816;3.104;2023-04-20T12:51:10;97138.34;;;18.17;36.64
61039;BME280;46919;45.816;3.104;2023-04-20T12:53:35;97145.91;;;18.25;37.64
61039;BME280;46919;45.816;3.104;2023-04-20T12:56:01;97150.78;;;18.53;37.08
61039;BME280;46919;45.816;3.104;2023-04-20T12:58:26;97138.78;;;18.68;36.90
61039;BME280;46919;45.816;3.104;2023-04-20T13:00:52;97145.88;;;18.50;35.82
61039;BME280;46919;45.816;3.104;2023-04-20T13:03:17;97139.81;;;18.34;35.83